Time;durP1;ratioP1;P1;durP2;ratioP2;P2;SDS_P1;SDS_P2;PMS_P1;PMS_P2;Temp;Humidity;BMP_temperature;BMP_pressure;BME280_temperature;BME280_humidity;BME280_pressure;Samples;Min_cycle;Max_cycle;Signal;HPM_P1;HPM_P2
2022/10/05 00:01:24;;;;;;;9.80;6.80;;;14.30;99.90;;;;;;4975951;28;20241;-53
2022/10/05 00:03:57;;;;;;;8.77;6.77;;;14.20;99.90;;;;;;4976408;28;20248;-53
2022/10/05 00:06:28;;;;;;;8.67;7.23;;;14.20;99.90;;;;;;4976143;28;20218;-53
2022/10/05 00:08:56;;;;;;;10.40;7.27;;;14.20;99.90;;;;;;4975768;28;20629;-54
2022/10/05 00:11:24;;;;;;;10.33;6.40;;;14.10;99.90;;;;;;4956602;29;20295;-54
2022/10/05 00:13:52;;;;;;;10.27;7.03;;;14.10;99.90;;;;;;4956894;28;20226;-53
2022/10/05 00:16:22;;;;;;;9.23;6.40;;;14.20;99.90;;;;;;4959994;28;20709;-54
2022/10/05 00:18:52;;;;;;;10.43;6.57;;;14.20;99.90;;;;;;4975708;28;20621;-53
2022/10/05 00:21:22;;;;;;;10.37;7.47;;;14.10;99.90;;;;;;4975899;28;20697;-53
2022/10/05 00:23:51;;;;;;;10.13;6.40;;;14.20;99.90;;;;;;4975931;28;20644;-53
2022/10/05 00:26:21;;;;;;;7.90;6.77;;;14.10;99.90;;;;;;4975948;28;20590;-53
2022/10/05 00:28:49;;;;;;;7.83;6.67;;;14.10;99.90;;;;;;4975388;28;20226;-52
2022/10/05 00:31:21;;;;;;;8.77;6.03;;;14.10;99.90;;;;;;4975253;28;20729;-53
2022/10/05 00:33:51;;;;;;;12.33;6.40;;;14.20;99.90;;;;;;4975654;28;20638;-53
2022/10/05 00:36:19;;;;;;;8.17;6.13;;;14.20;99.90;;;;;;4975492;28;20226;-53
2022/10/05 00:38:47;;;;;;;8.03;6.57;;;14.20;99.90;;;;;;4975040;28;20226;-53
2022/10/05 00:41:21;;;;;;;13.93;6.47;;;14.10;99.90;;;;;;4956667;28;20246;-53
2022/10/05 00:44:07;;;;;;;8.87;6.40;;;14.10;99.90;;;;;;4954684;29;20230;-53
2022/10/05 00:46:49;;;;;;;10.10;6.73;;;14.10;99.90;;;;;;4961316;28;20233;-53
2022/10/05 00:49:29;;;;;;;8.90;6.80;;;14.00;99.90;;;;;;4967937;28;20720;-53
2022/10/05 00:52:11;;;;;;;9.20;7.00;;;14.00;99.90;;;;;;4975064;28;20228;-53
2022/10/05 00:54:45;;;;;;;10.70;6.83;;;14.00;99.90;;;;;;4975044;28;20688;-53
2022/10/05 00:57:28;;;;;;;8.87;7.27;;;14.00;99.90;;;;;;4989445;28;20769;-53
2022/10/05 01:00:05;;;;;;;9.10;6.50;;;13.90;99.90;;;;;;4990049;28;20281;-53
2022/10/05 01:02:41;;;;;;;10.93;7.23;;;13.90;99.90;;;;;;4974371;28;20328;-52
2022/10/05 01:05:16;;;;;;;10.37;7.13;;;13.90;99.90;;;;;;4975032;28;20237;-53
2022/10/05 01:07:50;;;;;;;8.97;7.03;;;13.80;99.90;;;;;;4974686;28;20236;-53
2022/10/05 01:10:25;;;;;;;9.33;6.90;;;13.80;99.90;;;;;;4974535;28;20604;-52
2022/10/05 01:13:00;;;;;;;9.83;7.30;;;13.80;99.90;;;;;;4975041;28;20808;-53
2022/10/05 01:15:35;;;;;;;8.73;7.10;;;13.80;99.90;;;;;;4974608;28;20237;-53
2022/10/05 01:18:12;;;;;;;11.00;7.07;;;13.80;99.90;;;;;;4970642;28;20221;-53
2022/10/05 01:20:55;;;;;;;12.97;7.60;;;13.80;99.90;;;;;;4974596;28;20217;-54
2022/10/05 01:23:51;;;;;;;15.30;7.40;;;13.80;99.90;;;;;;4955552;28;20234;-53
2022/10/05 01:26:34;;;;;;;8.67;6.77;;;13.80;99.90;;;;;;4955315;29;20246;-53
2022/10/05 01:29:11;;;;;;;10.27;7.50;;;13.80;99.90;;;;;;4955313;29;20231;-53
2022/10/05 01:31:45;;;;;;;11.27;7.50;;;13.80;99.90;;;;;;4954607;28;20253;-53
2022/10/05 01:34:22;;;;;;;11.83;8.03;;;13.80;99.90;;;;;;4953925;29;20248;-53
2022/10/05 01:36:59;;;;;;;9.67;7.50;;;13.80;99.90;;;;;;4955054;29;20235;-52
2022/10/05 01:39:39;;;;;;;10.67;7.20;;;13.80;99.90;;;;;;4954900;29;20225;-53
2022/10/05 01:42:14;;;;;;;11.07;7.67;;;13.80;99.90;;;;;;4955385;28;20230;-54
2022/10/05 01:44:51;;;;;;;10.93;7.97;;;13.80;99.90;;;;;;4961820;28;20581;-53
2022/10/05 01:47:24;;;;;;;10.13;7.33;;;13.80;99.90;;;;;;4962207;28;20222;-52
2022/10/05 01:50:00;;;;;;;9.37;7.43;;;13.80;99.90;;;;;;4988501;28;20235;-53
2022/10/05 01:52:37;;;;;;;9.97;7.07;;;13.80;99.90;;;;;;4966799;28;20230;-53
2022/10/05 01:55:17;;;;;;;11.50;7.33;;;13.80;99.90;;;;;;4954880;29;20223;-53
2022/10/05 01:58:02;;;;;;;9.47;7.93;;;13.80;99.90;;;;;;4954908;29;20634;-53
2022/10/05 02:00:35;;;;;;;10.13;7.73;;;13.80;99.90;;;;;;4954227;28;20233;-53
2022/10/05 02:03:08;;;;;;;9.20;7.23;;;13.80;99.90;;;;;;4969533;28;20321;-53
2022/10/05 02:05:41;;;;;;;10.93;7.90;;;13.80;99.90;;;;;;4954555;29;20234;-53
2022/10/05 02:08:15;;;;;;;9.03;7.10;;;13.70;99.90;;;;;;4968569;28;20780;-53
2022/10/05 02:10:49;;;;;;;11.10;7.23;;;13.70;99.90;;;;;;4972467;28;20226;-53
2022/10/05 02:13:24;;;;;;;11.37;7.60;;;13.80;99.90;;;;;;4988827;28;20276;-53
2022/10/05 02:16:00;;;;;;;9.80;8.00;;;13.70;99.90;;;;;;4988811;28;20332;-54
2022/10/05 02:18:33;;;;;;;13.63;7.73;;;13.80;99.90;;;;;;4973393;28;20693;-53
2022/10/05 02:21:05;;;;;;;11.57;7.70;;;13.80;99.90;;;;;;4973870;28;20716;-52
2022/10/05 02:23:37;;;;;;;8.50;7.33;;;13.70;99.90;;;;;;4973024;28;20228;-52
2022/10/05 02:26:08;;;;;;;9.23;7.30;;;13.70;99.90;;;;;;4979610;28;20241;-53
2022/10/05 02:28:41;;;;;;;9.37;7.97;;;13.70;99.90;;;;;;4954231;29;20305;-52
2022/10/05 02:31:13;;;;;;;8.67;7.30;;;13.60;99.90;;;;;;4954043;28;20249;-53
2022/10/05 02:33:42;;;;;;;10.13;7.27;;;13.60;99.90;;;;;;4954241;29;20222;-53
2022/10/05 02:36:17;;;;;;;9.30;7.83;;;13.60;99.90;;;;;;4969246;28;20238;-53
2022/10/05 02:38:59;;;;;;;10.23;7.80;;;13.60;99.90;;;;;;4953016;29;20717;-53
2022/10/05 02:41:40;;;;;;;11.27;7.77;;;13.60;99.90;;;;;;4969003;28;20254;-52
2022/10/05 02:44:19;;;;;;;10.00;7.70;;;13.60;99.90;;;;;;4959204;28;20264;-53
2022/10/05 02:46:55;;;;;;;10.27;8.10;;;13.60;99.90;;;;;;4973300;28;20229;-54
2022/10/05 02:49:32;;;;;;;10.53;7.40;;;13.60;99.90;;;;;;4987584;28;20244;-54
2022/10/05 02:52:09;;;;;;;11.63;8.10;;;13.60;99.90;;;;;;4973432;28;20299;-53
2022/10/05 02:54:45;;;;;;;10.20;8.07;;;13.60;99.90;;;;;;4988268;28;20592;-53
2022/10/05 02:57:23;;;;;;;11.73;8.03;;;13.60;99.90;;;;;;4988426;28;20711;-52
2022/10/05 02:59:58;;;;;;;10.87;8.20;;;13.50;99.90;;;;;;4988648;28;20291;-52
2022/10/05 03:02:33;;;;;;;12.67;7.73;;;13.60;99.90;;;;;;4972971;28;20240;-55
2022/10/05 03:05:12;;;;;;;11.67;8.17;;;13.60;99.90;;;;;;4988216;28;20620;-53
2022/10/05 03:07:48;;;;;;;10.80;8.53;;;13.60;99.90;;;;;;4973600;28;20238;-53
2022/10/05 03:10:26;;;;;;;9.93;8.27;;;13.50;99.90;;;;;;4988276;28;20245;-52
2022/10/05 03:13:01;;;;;;;12.17;7.63;;;13.50;99.90;;;;;;4972152;28;20717;-53
2022/10/05 03:15:45;;;;;;;10.27;8.07;;;13.50;99.90;;;;;;4988056;28;20325;-52
2022/10/05 03:18:26;;;;;;;10.47;7.83;;;13.50;99.90;;;;;;4986675;28;20321;-53
2022/10/05 03:21:10;;;;;;;11.27;7.97;;;13.50;99.90;;;;;;4991494;28;20596;-53
2022/10/05 03:23:51;;;;;;;11.43;8.30;;;13.60;99.90;;;;;;4991622;28;20226;-53
2022/10/05 03:26:34;;;;;;;13.17;8.37;;;13.60;99.90;;;;;;4974946;28;20230;-53
2022/10/05 03:29:08;;;;;;;12.17;8.40;;;13.50;99.90;;;;;;4987353;28;20284;-53
2022/10/05 03:31:40;;;;;;;11.23;7.87;;;13.50;99.90;;;;;;4976204;28;20265;-53
2022/10/05 03:34:15;;;;;;;9.20;7.93;;;13.60;99.90;;;;;;4991526;28;20229;-53
2022/10/05 03:36:51;;;;;;;10.97;7.97;;;13.60;99.90;;;;;;4979808;28;20248;-53
2022/10/05 03:39:26;;;;;;;9.53;8.13;;;13.60;99.90;;;;;;4957201;29;20757;-54
2022/10/05 03:42:02;;;;;;;9.03;8.13;;;13.50;99.90;;;;;;4957214;29;20233;-51
2022/10/05 03:44:40;;;;;;;8.97;7.67;;;13.50;99.90;;;;;;4966012;28;20253;-53
2022/10/05 03:47:14;;;;;;;9.10;7.83;;;13.50;99.90;;;;;;4976282;28;20228;-53
2022/10/05 03:50:06;;;;;;;10.80;8.13;;;13.50;99.90;;;;;;4975750;28;20238;-52
2022/10/05 03:52:39;;;;;;;11.60;7.87;;;13.60;99.90;;;;;;4970161;28;20227;-53
2022/10/05 03:55:19;;;;;;;11.70;8.67;;;13.60;99.90;;;;;;4991228;28;20229;-54
2022/10/05 03:57:50;;;;;;;9.07;7.93;;;13.60;99.90;;;;;;4976128;28;20681;-53
2022/10/05 04:00:22;;;;;;;11.57;8.43;;;13.60;99.90;;;;;;4990822;28;20716;-53
2022/10/05 04:03:03;;;;;;;9.83;8.40;;;13.50;99.90;;;;;;4991107;28;20249;-53
2022/10/05 04:05:38;;;;;;;9.47;7.93;;;13.50;99.90;;;;;;4990851;28;20663;-53
2022/10/05 04:08:11;;;;;;;9.33;7.77;;;13.60;99.90;;;;;;4976297;28;20694;-53
2022/10/05 04:10:44;;;;;;;12.60;8.50;;;13.50;99.90;;;;;;4975715;28;20229;-53
2022/10/05 04:13:17;;;;;;;9.93;8.33;;;13.50;99.90;;;;;;4975972;28;20221;-53
2022/10/05 04:15:54;;;;;;;10.87;7.80;;;13.60;99.90;;;;;;4990314;28;20724;-53
2022/10/05 04:18:26;;;;;;;10.33;8.20;;;13.50;99.90;;;;;;4976537;28;20225;-52
2022/10/05 04:21:01;;;;;;;9.83;7.83;;;13.50;99.90;;;;;;4975772;28;20684;-52
2022/10/05 04:23:40;;;;;;;11.40;8.07;;;13.60;99.90;;;;;;4974271;28;20272;-53
2022/10/05 04:26:13;;;;;;;12.23;8.10;;;13.60;99.90;;;;;;4975740;28;20218;-53
2022/10/05 04:28:50;;;;;;;10.53;8.53;;;13.50;99.90;;;;;;4974238;28;20229;-52
2022/10/05 04:31:37;;;;;;;9.90;8.07;;;13.50;99.90;;;;;;4989049;28;20648;-53
2022/10/05 04:34:24;;;;;;;13.50;8.73;;;13.60;99.90;;;;;;4973047;28;20597;-52
2022/10/05 04:36:59;;;;;;;10.43;7.63;;;13.60;99.90;;;;;;4990524;28;20233;-53
2022/10/05 04:39:39;;;;;;;10.57;8.33;;;13.60;99.90;;;;;;4956359;28;20226;-53
2022/10/05 04:42:14;;;;;;;9.53;8.17;;;13.60;99.90;;;;;;4977547;28;20258;-52
2022/10/05 04:44:54;;;;;;;11.70;8.67;;;13.60;99.90;;;;;;4990135;28;20304;-53
2022/10/05 04:47:50;;;;;;;10.30;8.47;;;13.60;99.90;;;;;;4975276;28;20229;-53
2022/10/05 04:50:31;;;;;;;13.03;8.47;;;13.60;99.90;;;;;;4985752;28;20233;-53
2022/10/05 04:53:14;;;;;;;14.27;8.77;;;13.70;99.90;;;;;;4989512;28;20229;-52
2022/10/05 04:55:53;;;;;;;13.50;8.27;;;13.60;99.90;;;;;;4989899;28;20694;-53
2022/10/05 04:58:31;;;;;;;9.47;7.83;;;13.60;99.90;;;;;;4990002;28;20233;-53
2022/10/05 05:01:14;;;;;;;14.87;8.90;;;13.60;99.90;;;;;;4989651;28;20265;-52
2022/10/05 05:03:55;;;;;;;10.70;8.63;;;13.60;99.90;;;;;;4974744;28;20232;-53
2022/10/05 05:06:35;;;;;;;12.17;9.20;;;13.60;99.90;;;;;;4970391;28;20724;-54
2022/10/05 05:09:24;;;;;;;11.97;8.70;;;13.60;99.90;;;;;;4954448;29;20610;-52
2022/10/05 05:12:16;;;;;;;10.63;9.27;;;13.60;99.90;;;;;;4969850;28;20269;-54
2022/10/05 05:15:15;;;;;;;10.50;8.63;;;13.60;99.90;;;;;;4970231;28;20230;-54
2022/10/05 05:18:06;;;;;;;10.57;9.47;;;13.60;99.90;;;;;;4987021;28;20229;-53
2022/10/05 05:20:48;;;;;;;11.40;9.73;;;13.60;99.90;;;;;;4978009;28;20255;-53
2022/10/05 05:23:23;;;;;;;13.47;9.10;;;13.60;99.90;;;;;;4970182;28;20264;-52
2022/10/05 05:26:05;;;;;;;12.57;9.33;;;13.60;99.90;;;;;;4976201;28;20693;-53
2022/10/05 05:28:42;;;;;;;12.13;10.17;;;13.70;99.90;;;;;;4988761;28;20314;-53
2022/10/05 05:31:18;;;;;;;13.73;9.23;;;13.60;99.90;;;;;;4972850;28;20245;-52
2022/10/05 05:33:57;;;;;;;15.23;10.70;;;13.70;99.90;;;;;;4989077;28;20702;-53
2022/10/05 05:36:39;;;;;;;13.00;10.03;;;13.60;99.90;;;;;;4989259;28;20233;-53
2022/10/05 05:39:21;;;;;;;13.57;10.63;;;13.60;99.90;;;;;;4974713;28;20320;-52
2022/10/05 05:41:59;;;;;;;13.77;10.70;;;13.50;99.90;;;;;;4989008;28;20696;-53
2022/10/05 05:44:31;;;;;;;15.90;10.70;;;13.50;99.90;;;;;;4988021;28;20223;-53
2022/10/05 05:47:15;;;;;;;17.23;10.40;;;13.50;99.90;;;;;;4988951;28;20235;-53
2022/10/05 05:49:55;;;;;;;14.30;10.67;;;13.50;99.90;;;;;;4983834;28;20241;-53
2022/10/05 05:52:30;;;;;;;14.93;11.00;;;13.50;99.90;;;;;;4984386;28;20242;-52
2022/10/05 05:55:04;;;;;;;13.50;11.03;;;13.50;99.90;;;;;;4975166;28;20234;-53
2022/10/05 05:57:40;;;;;;;15.90;12.03;;;13.50;99.90;;;;;;4973432;28;20224;-52
2022/10/05 06:00:20;;;;;;;14.77;11.17;;;13.50;99.90;;;;;;4987281;28;20263;-53
2022/10/05 06:03:00;;;;;;;14.20;10.50;;;13.60;99.90;;;;;;4968921;28;20237;-53
2022/10/05 06:05:32;;;;;;;12.60;11.10;;;13.60;99.90;;;;;;4985763;28;20225;-53
2022/10/05 06:08:12;;;;;;;18.60;11.80;;;13.60;99.90;;;;;;4987123;28;20741;-53
2022/10/05 06:10:45;;;;;;;13.70;10.53;;;13.60;99.90;;;;;;4988057;28;20229;-52
2022/10/05 06:13:20;;;;;;;15.03;11.87;;;13.50;99.90;;;;;;4986145;28;20771;-52
2022/10/05 06:15:54;;;;;;;14.83;11.30;;;13.60;99.90;;;;;;4987561;28;20225;-53
2022/10/05 06:18:23;;;;;;;14.40;12.00;;;13.60;99.90;;;;;;4970792;28;20221;-53
2022/10/05 06:20:59;;;;;;;16.47;11.87;;;13.60;99.90;;;;;;4974819;28;20267;-53
2022/10/05 06:23:34;;;;;;;15.37;11.30;;;13.60;99.90;;;;;;4970296;28;20229;-54
2022/10/05 06:26:21;;;;;;;16.13;11.53;;;13.60;99.90;;;;;;4987132;28;20614;-53
2022/10/05 06:28:56;;;;;;;15.40;11.43;;;13.60;99.90;;;;;;4979578;28;20247;-53
2022/10/05 06:31:40;;;;;;;19.57;12.20;;;13.70;99.90;;;;;;4985738;28;20236;-52
2022/10/05 06:34:20;;;;;;;12.93;11.03;;;13.70;99.90;;;;;;4972650;28;20229;-52
2022/10/05 06:36:53;;;;;;;15.27;11.57;;;13.70;99.90;;;;;;4984992;28;20233;-51
2022/10/05 06:39:43;;;;;;;13.37;10.57;;;13.80;99.90;;;;;;4973082;28;20232;-52
2022/10/05 06:42:23;;;;;;;14.30;11.67;;;13.70;99.90;;;;;;4950930;28;20635;-53
2022/10/05 06:45:30;;;;;;;13.37;11.93;;;13.80;99.90;;;;;;4972711;28;20589;-51
2022/10/05 06:48:25;;;;;;;15.07;11.67;;;13.80;99.90;;;;;;4972013;28;20260;-52
2022/10/05 06:51:11;;;;;;;14.60;11.63;;;13.90;99.90;;;;;;4973929;28;20637;-52
2022/10/05 06:54:09;;;;;;;17.13;12.00;;;13.80;99.90;;;;;;4973004;28;20250;-51
2022/10/05 06:56:45;;;;;;;17.90;12.07;;;13.90;99.90;;;;;;4991168;28;20230;-52
2022/10/05 06:59:23;;;;;;;13.50;10.63;;;13.90;99.90;;;;;;4974789;28;20241;-52
2022/10/05 07:02:04;;;;;;;14.43;12.17;;;13.90;99.90;;;;;;4978390;28;20232;-52
2022/10/05 07:04:53;;;;;;;16.77;12.70;;;13.90;99.90;;;;;;4988666;28;20578;-52
2022/10/05 07:07:29;;;;;;;15.83;11.90;;;13.90;99.90;;;;;;4974104;28;20715;-51
2022/10/05 07:10:10;;;;;;;14.80;11.63;;;14.00;99.90;;;;;;4975881;28;20268;-52
2022/10/05 07:12:53;;;;;;;14.10;11.03;;;14.00;99.90;;;;;;4980454;28;20716;-53
2022/10/05 07:15:42;;;;;;;20.10;11.87;;;14.10;99.90;;;;;;4987859;28;20715;-52
2022/10/05 07:18:34;;;;;;;17.03;12.77;;;14.10;99.90;;;;;;4990317;28;20234;-52
2022/10/05 07:21:13;;;;;;;14.13;11.27;;;14.10;99.90;;;;;;4974034;28;20218;-52
2022/10/05 07:23:50;;;;;;;16.47;11.70;;;14.10;99.90;;;;;;4974631;28;20706;-51
2022/10/05 07:26:26;;;;;;;13.53;12.10;;;14.10;99.90;;;;;;4988707;28;20728;-51
2022/10/05 07:29:18;;;;;;;14.60;12.60;;;14.10;99.90;;;;;;4989412;28;20249;-52
2022/10/05 07:31:55;;;;;;;14.67;12.10;;;14.10;99.90;;;;;;4973767;28;20230;-52
2022/10/05 07:34:38;;;;;;;16.10;11.87;;;14.10;99.90;;;;;;4968820;28;20222;-51
2022/10/05 07:40:08;;;;;;;14.17;11.60;;;14.10;99.90;;;;;;4974803;28;20247;-53
2022/10/05 07:42:47;;;;;;;14.63;11.90;;;14.10;99.90;;;;;;4969527;28;20240;-53
2022/10/05 07:45:28;;;;;;;15.47;11.60;;;14.20;99.90;;;;;;4974428;28;20232;-53
2022/10/05 07:48:00;;;;;;;13.53;11.30;;;14.20;99.90;;;;;;4973430;28;20222;-53
2022/10/05 07:50:35;;;;;;;12.93;11.10;;;14.20;99.90;;;;;;4986236;28;20254;-55
2022/10/05 07:53:11;;;;;;;15.87;11.90;;;14.20;99.90;;;;;;4975357;28;21501;-53
2022/10/05 07:55:44;;;;;;;14.23;11.47;;;14.30;99.90;;;;;;4978176;28;20295;-51
2022/10/05 07:58:23;;;;;;;13.37;10.83;;;14.30;99.90;;;;;;4986173;28;20275;-53
2022/10/05 08:01:06;;;;;;;15.07;11.33;;;14.40;99.90;;;;;;4987061;28;20717;-53
2022/10/05 08:03:48;;;;;;;17.17;11.83;;;14.40;99.90;;;;;;4972474;28;20236;-53
2022/10/05 08:06:43;;;;;;;12.50;11.00;;;14.50;99.90;;;;;;4968824;28;20635;-51
2022/10/05 08:09:29;;;;;;;14.63;10.73;;;14.60;99.90;;;;;;4965519;28;20233;-52
2022/10/05 08:12:07;;;;;;;14.60;11.87;;;14.60;99.90;;;;;;4968262;28;20246;-53
2022/10/05 08:14:43;;;;;;;13.07;9.83;;;14.70;99.90;;;;;;4972068;28;20280;-53
2022/10/05 08:17:18;;;;;;;12.40;10.53;;;14.70;99.90;;;;;;4975261;28;20251;-52
2022/10/05 08:20:03;;;;;;;13.83;11.17;;;14.80;99.90;;;;;;4972997;28;20239;-53
2022/10/05 08:22:44;;;;;;;12.93;11.03;;;14.90;99.90;;;;;;4974281;28;20705;-53
2022/10/05 08:25:19;;;;;;;13.60;10.67;;;15.00;99.90;;;;;;4974078;28;20277;-52
2022/10/05 08:27:52;;;;;;;14.30;10.83;;;15.10;99.90;;;;;;4971342;28;20234;-52
2022/10/05 08:30:21;;;;;;;12.47;10.93;;;15.20;99.90;;;;;;4973194;28;20776;-53
2022/10/05 08:32:54;;;;;;;14.83;11.20;;;15.20;99.90;;;;;;4974148;28;20246;-52
2022/10/05 08:35:30;;;;;;;16.00;11.70;;;15.30;99.90;;;;;;4970296;28;20227;-52
2022/10/05 08:38:00;;;;;;;13.07;10.47;;;15.30;99.90;;;;;;4973038;28;20230;-53
2022/10/05 08:41:03;;;;;;;12.50;11.20;;;15.20;99.90;;;;;;4957386;28;20233;-52
2022/10/05 08:44:05;;;;;;;12.87;10.43;;;15.10;99.90;;;;;;4969255;28;20218;-53
2022/10/05 08:46:57;;;;;;;11.27;10.10;;;15.10;99.90;;;;;;4973157;28;20701;-52
2022/10/05 08:49:58;;;;;;;13.10;9.93;;;15.20;99.90;;;;;;4979764;28;20792;-53
2022/10/05 08:52:28;;;;;;;14.50;10.47;;;15.40;99.90;;;;;;4969011;28;20285;-53
2022/10/05 08:55:30;;;;;;;11.03;9.83;;;15.50;99.90;;;;;;4974462;28;20226;-52
2022/10/05 08:58:37;;;;;;;13.27;9.80;;;15.70;99.90;;;;;;4961951;28;20245;-52
2022/10/05 09:01:14;;;;;;;14.13;10.20;;;15.80;99.90;;;;;;4970955;28;20632;-52
2022/10/05 09:04:07;;;;;;;10.67;9.57;;;15.80;99.90;;;;;;4974340;28;20218;-52
2022/10/05 09:07:17;;;;;;;12.77;9.93;;;15.90;99.90;;;;;;4972241;28;20702;-53
2022/10/05 09:10:37;;;;;;;11.57;9.20;;;15.90;99.90;;;;;;4925933;28;20230;-52
2022/10/05 09:13:25;;;;;;;12.00;10.67;;;16.00;99.90;;;;;;4895545;29;20252;-53
2022/10/05 09:16:09;;;;;;;12.43;11.13;;;15.80;99.90;;;;;;4894769;29;20230;-52
2022/10/05 09:18:52;;;;;;;14.33;10.90;;;15.90;99.90;;;;;;4948106;28;20234;-53
2022/10/05 09:21:32;;;;;;;11.70;10.17;;;16.00;99.90;;;;;;4974253;28;20242;-52
2022/10/05 09:24:15;;;;;;;11.23;10.03;;;16.00;99.90;;;;;;4973414;28;20226;-53
2022/10/05 09:26:45;;;;;;;12.17;10.97;;;16.10;99.90;;;;;;4973913;28;20231;-53
2022/10/05 09:29:51;;;;;;;12.13;10.93;;;16.00;99.90;;;;;;4973192;28;20269;-52
2022/10/05 09:32:42;;;;;;;13.47;11.23;;;16.00;99.90;;;;;;4962981;28;20234;-52
2022/10/05 09:35:38;;;;;;;11.20;10.20;;;16.00;99.90;;;;;;4973070;28;20230;-53
2022/10/05 09:38:19;;;;;;;11.40;10.23;;;16.20;99.90;;;;;;4973331;28;20222;-53
2022/10/05 09:41:23;;;;;;;10.70;9.40;;;16.30;99.90;;;;;;4971549;28;20242;-52
2022/10/05 09:44:20;;;;;;;10.47;9.27;;;16.40;99.90;;;;;;4971355;28;20225;-52
2022/10/05 09:47:21;;;;;;;10.87;9.23;;;16.30;99.90;;;;;;4971891;28;20238;-52
2022/10/05 09:50:16;;;;;;;13.03;9.30;;;16.30;99.90;;;;;;4970926;28;20238;-52
2022/10/05 09:53:04;;;;;;;9.70;8.80;;;16.40;99.90;;;;;;4970744;28;20235;-53
2022/10/05 09:56:08;;;;;;;10.30;9.30;;;16.40;99.90;;;;;;4973692;28;20222;-53
2022/10/05 09:59:24;;;;;;;9.70;8.57;;;16.50;99.90;;;;;;4972866;28;20634;-53
2022/10/05 10:02:20;;;;;;;9.80;7.93;;;16.30;99.90;;;;;;4972916;28;20698;-53
2022/10/05 10:05:06;;;;;;;8.83;7.80;;;16.30;99.90;;;;;;4973400;28;20226;-51
2022/10/05 10:07:57;;;;;;;9.07;7.90;;;16.30;99.90;;;;;;4973130;28;20225;-52
2022/10/05 10:10:57;;;;;;;9.53;7.03;;;16.40;99.90;;;;;;4973376;28;20274;-52
2022/10/05 10:13:55;;;;;;;8.50;6.77;;;16.30;99.90;;;;;;4972123;28;20234;-53
2022/10/05 10:16:40;;;;;;;8.07;7.07;;;16.30;99.90;;;;;;4942895;28;20227;-53
2022/10/05 10:19:42;;;;;;;8.90;7.43;;;16.30;99.90;;;;;;4973215;28;20226;-52
2022/10/05 10:22:27;;;;;;;9.03;6.93;;;16.30;99.90;;;;;;4960351;28;20696;-52
2022/10/05 10:25:19;;;;;;;8.33;7.50;;;16.30;99.90;;;;;;4972288;28;20683;-52
2022/10/05 10:28:08;;;;;;;7.30;6.60;;;16.20;99.90;;;;;;4972490;28;20689;-53
2022/10/05 10:30:52;;;;;;;7.60;6.77;;;16.20;99.90;;;;;;4930934;28;20238;-53
2022/10/05 10:33:46;;;;;;;7.80;7.00;;;16.30;99.90;;;;;;4977010;28;20237;-53
2022/10/05 10:36:20;;;;;;;7.70;7.00;;;16.30;99.90;;;;;;4974474;28;20252;-53
2022/10/05 10:38:57;;;;;;;9.97;8.00;;;16.30;99.90;;;;;;4976892;28;20232;-53
2022/10/05 10:42:00;;;;;;;11.30;8.10;;;16.20;99.90;;;;;;4970896;28;20233;-53
2022/10/05 10:45:27;;;;;;;9.17;8.17;;;16.10;99.90;;;;;;4976379;28;20229;-53
2022/10/05 10:48:03;;;;;;;8.20;7.30;;;16.10;99.90;;;;;;4948719;29;20232;-53
2022/10/05 10:50:52;;;;;;;8.47;7.73;;;16.10;99.90;;;;;;4949848;29;20254;-53
2022/10/05 10:53:44;;;;;;;9.43;8.33;;;16.10;99.90;;;;;;4967339;28;20230;-53
2022/10/05 10:56:35;;;;;;;8.57;7.77;;;16.10;99.90;;;;;;4975759;28;20227;-54
2022/10/05 10:59:44;;;;;;;8.50;7.70;;;16.10;99.90;;;;;;4975757;28;20708;-53
2022/10/05 11:02:36;;;;;;;8.33;7.63;;;16.10;99.90;;;;;;4965453;28;20567;-52
2022/10/05 11:05:18;;;;;;;8.10;7.33;;;16.10;99.90;;;;;;4975494;28;20234;-52
2022/10/05 11:08:02;;;;;;;7.90;7.20;;;16.10;99.90;;;;;;4975271;28;20223;-52
2022/10/05 11:10:47;;;;;;;7.57;6.87;;;16.20;99.90;;;;;;4959515;28;20230;-52
2022/10/05 11:13:42;;;;;;;7.50;6.80;;;16.20;99.90;;;;;;4957209;28;20570;-52
2022/10/05 11:16:42;;;;;;;7.03;6.20;;;16.20;99.90;;;;;;4955927;28;20238;-52
2022/10/05 11:19:39;;;;;;;6.87;6.27;;;16.20;99.90;;;;;;4955675;28;20235;-54
2022/10/05 11:22:54;;;;;;;7.20;6.50;;;16.30;99.90;;;;;;4954469;28;20739;-53
2022/10/05 11:26:01;;;;;;;8.27;5.90;;;16.30;99.90;;;;;;4957322;28;20237;-52
2022/10/05 11:29:08;;;;;;;10.83;5.73;;;16.30;99.90;;;;;;4956639;28;20222;-53
2022/10/05 11:32:04;;;;;;;6.40;5.80;;;16.30;99.90;;;;;;4956344;28;20576;-51
2022/10/05 11:35:03;;;;;;;5.57;4.97;;;16.30;99.90;;;;;;4956081;28;20236;-53
2022/10/05 11:37:57;;;;;;;5.73;5.07;;;16.30;99.90;;;;;;4953912;28;20258;-53
2022/10/05 11:41:03;;;;;;;5.73;5.17;;;16.30;99.90;;;;;;4956116;28;20231;-53
2022/10/05 11:44:08;;;;;;;5.07;4.67;;;16.50;99.90;;;;;;4954924;28;20728;-53
2022/10/05 11:46:44;;;;;;;5.37;4.87;;;16.40;99.90;;;;;;4970920;28;20237;-53
2022/10/05 11:49:32;;;;;;;5.10;4.60;;;16.50;99.90;;;;;;4975613;28;20745;-52
2022/10/05 11:52:08;;;;;;;4.87;4.30;;;16.60;99.90;;;;;;4973549;28;20683;-52
2022/10/05 11:55:04;;;;;;;7.00;4.50;;;16.50;99.90;;;;;;4970546;28;20309;-51
2022/10/05 11:57:47;;;;;;;4.80;4.17;;;16.60;99.90;;;;;;4972491;28;20234;-53
2022/10/05 12:00:19;;;;;;;4.57;3.90;;;16.60;99.90;;;;;;4974425;28;20230;-53
2022/10/05 12:03:18;;;;;;;4.70;4.30;;;16.70;99.90;;;;;;4975331;28;20231;-52
2022/10/05 12:06:03;;;;;;;4.70;4.30;;;16.60;99.90;;;;;;4971653;28;20753;-53
2022/10/05 12:08:42;;;;;;;4.53;4.13;;;16.70;99.90;;;;;;4970052;28;20242;-52
2022/10/05 12:11:33;;;;;;;4.60;4.17;;;16.80;99.90;;;;;;4973212;28;20702;-52
2022/10/05 12:14:06;;;;;;;4.57;4.03;;;16.90;99.90;;;;;;4974376;28;20294;-51
2022/10/05 12:16:42;;;;;;;6.20;3.90;;;16.90;99.90;;;;;;4974168;28;20226;-52
2022/10/05 12:19:18;;;;;;;4.40;3.97;;;17.00;99.90;;;;;;4974821;28;20764;-53
2022/10/05 12:21:50;;;;;;;5.27;3.73;;;17.10;99.90;;;;;;4973507;28;20241;-53
2022/10/05 12:24:26;;;;;;;5.20;4.07;;;17.20;99.90;;;;;;4974897;28;20220;-53
2022/10/05 12:26:59;;;;;;;4.53;3.90;;;17.20;99.90;;;;;;4973528;28;20708;-52
2022/10/05 12:29:35;;;;;;;4.73;4.33;;;17.30;99.90;;;;;;4973467;28;20717;-53
2022/10/05 12:32:07;;;;;;;4.50;3.87;;;17.20;99.90;;;;;;4972377;28;20246;-53
2022/10/05 12:34:48;;;;;;;4.10;3.70;;;17.30;99.90;;;;;;4974474;28;20584;-52
2022/10/05 12:37:37;;;;;;;4.40;4.00;;;17.30;99.90;;;;;;4973057;28;20230;-54
2022/10/05 12:40:18;;;;;;;7.13;3.90;;;17.30;99.90;;;;;;4972496;28;20230;-53
2022/10/05 12:42:53;;;;;;;4.73;3.90;;;17.30;99.90;;;;;;4974763;28;21258;-53
2022/10/05 12:45:29;;;;;;;5.07;4.20;;;17.40;99.90;;;;;;4971889;28;20225;-52
2022/10/05 12:48:19;;;;;;;5.87;3.77;;;17.40;99.90;;;;;;4974455;28;20230;-53
2022/10/05 12:50:50;;;;;;;5.07;3.90;;;17.40;99.90;;;;;;4971941;28;20607;-52
2022/10/05 12:53:27;;;;;;;4.40;4.00;;;17.40;99.90;;;;;;4974614;28;20238;-53
2022/10/05 12:56:03;;;;;;;5.63;4.07;;;17.50;99.90;;;;;;4975223;28;20242;-53
2022/10/05 12:58:42;;;;;;;4.03;3.70;;;17.50;99.90;;;;;;4974515;28;20470;-53
2022/10/05 13:01:24;;;;;;;5.13;3.93;;;17.50;99.90;;;;;;4974733;28;20246;-53
2022/10/05 13:03:58;;;;;;;6.03;3.73;;;17.50;99.90;;;;;;4975324;28;20228;-53
2022/10/05 13:06:40;;;;;;;6.47;4.57;;;17.50;99.90;;;;;;4974780;28;20233;-54
2022/10/05 13:09:13;;;;;;;4.63;3.90;;;17.50;99.90;;;;;;4975040;28;20266;-52
2022/10/05 13:11:46;;;;;;;4.63;3.90;;;17.40;99.90;;;;;;4974854;28;20220;-51
2022/10/05 13:14:37;;;;;;;6.50;3.80;;;17.50;99.90;;;;;;4966684;28;20238;-52
2022/10/05 13:17:12;;;;;;;4.10;3.70;;;17.50;99.90;;;;;;4974955;28;20568;-52
2022/10/05 13:19:45;;;;;;;4.20;3.33;;;17.60;99.90;;;;;;4974529;28;20670;-52
2022/10/05 13:22:31;;;;;;;4.43;3.87;;;17.60;99.90;;;;;;4967336;28;20317;-53
2022/10/05 13:25:24;;;;;;;4.80;4.27;;;17.70;99.90;;;;;;4975070;28;20281;-52
2022/10/05 13:28:04;;;;;;;4.30;3.43;;;17.70;99.90;;;;;;4974130;28;20222;-52
2022/10/05 13:30:33;;;;;;;5.30;3.70;;;17.70;99.90;;;;;;4974126;28;20769;-52
2022/10/05 13:33:06;;;;;;;3.97;3.43;;;17.70;99.90;;;;;;4974712;28;20245;-52
2022/10/05 13:35:43;;;;;;;8.60;3.87;;;17.80;99.90;;;;;;4974438;28;20250;-51
2022/10/05 13:38:25;;;;;;;3.90;3.50;;;17.80;99.90;;;;;;4974641;28;20297;-53
2022/10/05 13:41:03;;;;;;;5.43;4.00;;;17.90;99.90;;;;;;4974783;28;20237;-52
2022/10/05 13:43:42;;;;;;;4.60;3.53;;;17.80;99.90;;;;;;4974528;28;20243;-51
2022/10/05 13:46:23;;;;;;;4.17;3.57;;;17.90;99.90;;;;;;4974657;28;20718;-53
2022/10/05 13:49:00;;;;;;;4.57;3.30;;;18.00;99.90;;;;;;4974144;28;20242;-54
2022/10/05 13:51:36;;;;;;;4.07;3.37;;;18.00;99.90;;;;;;4973907;28;20226;-53
2022/10/05 13:54:15;;;;;;;4.93;3.73;;;17.90;99.90;;;;;;4974439;28;20242;-52